sensor_id;sensor_type;location;lat;lon;timestamp;P1;durP1;ratioP1;P2;durP2;ratioP2
33413;SDS011;60055;41.884;12.534;2024-03-07T00:00:07;17.92;;;9.15;;
33413;SDS011;60055;41.884;12.534;2024-03-07T00:02:41;21.92;;;8.90;;
33413;SDS011;60055;41.884;12.534;2024-03-07T00:05:12;20.83;;;8.57;;
33413;SDS011;60055;41.884;12.534;2024-03-07T00:07:38;20.90;;;9.32;;
33413;SDS011;60055;41.884;12.534;2024-03-07T00:10:04;21.55;;;9.50;;
33413;SDS011;60055;41.884;12.534;2024-03-07T00:12:32;22.73;;;9.43;;
33413;SDS011;60055;41.884;12.534;2024-03-07T00:15:06;19.90;;;9.20;;
33413;SDS011;60055;41.884;12.534;2024-03-07T00:17:32;19.95;;;9.23;;
33413;SDS011;60055;41.884;12.534;2024-03-07T00:19:58;18.90;;;9.13;;
33413;SDS011;60055;41.884;12.534;2024-03-07T00:22:23;24.38;;;9.80;;
33413;SDS011;60055;41.884;12.534;2024-03-07T00:24:51;20.83;;;9.35;;
33413;SDS011;60055;41.884;12.534;2024-03-07T00:27:17;22.38;;;9.55;;
33413;SDS011;60055;41.884;12.534;2024-03-07T00:29:43;25.50;;;11.15;;
33413;SDS011;60055;41.884;12.534;2024-03-07T00:32:08;24.90;;;11.07;;
33413;SDS011;60055;41.884;12.534;2024-03-07T00:34:35;25.13;;;11.52;;
33413;SDS011;60055;41.884;12.534;2024-03-07T00:37:00;23.40;;;10.85;;
33413;SDS011;60055;41.884;12.534;2024-03-07T00:39:25;34.35;;;14.10;;
33413;SDS011;60055;41.884;12.534;2024-03-07T00:41:51;28.80;;;14.18;;
33413;SDS011;60055;41.884;12.534;2024-03-07T00:44:16;25.52;;;12.52;;
33413;SDS011;60055;41.884;12.534;2024-03-07T00:46:42;25.42;;;10.50;;
33413;SDS011;60055;41.884;12.534;2024-03-07T00:49:07;21.17;;;9.98;;
33413;SDS011;60055;41.884;12.534;2024-03-07T00:51:34;22.15;;;10.00;;
33413;SDS011;60055;41.884;12.534;2024-03-07T00:54:00;22.65;;;10.13;;
33413;SDS011;60055;41.884;12.534;2024-03-07T00:56:25;25.90;;;10.07;;
33413;SDS011;60055;41.884;12.534;2024-03-07T00:58:51;21.95;;;10.00;;
33413;SDS011;60055;41.884;12.534;2024-03-07T01:01:17;25.80;;;10.13;;
33413;SDS011;60055;41.884;12.534;2024-03-07T01:03:44;20.40;;;9.45;;
33413;SDS011;60055;41.884;12.534;2024-03-07T01:06:09;24.15;;;9.70;;
33413;SDS011;60055;41.884;12.534;2024-03-07T01:08:35;20.55;;;10.02;;
33413;SDS011;60055;41.884;12.534;2024-03-07T01:11:02;22.50;;;9.77;;
33413;SDS011;60055;41.884;12.534;2024-03-07T01:13:37;23.50;;;10.27;;
33413;SDS011;60055;41.884;12.534;2024-03-07T01:16:03;21.65;;;9.73;;
33413;SDS011;60055;41.884;12.534;2024-03-07T01:18:29;20.52;;;10.43;;
33413;SDS011;60055;41.884;12.534;2024-03-07T01:20:56;23.65;;;10.75;;
33413;SDS011;60055;41.884;12.534;2024-03-07T01:23:22;24.83;;;10.38;;
33413;SDS011;60055;41.884;12.534;2024-03-07T01:25:47;27.20;;;11.85;;
33413;SDS011;60055;41.884;12.534;2024-03-07T01:28:13;23.65;;;11.73;;
33413;SDS011;60055;41.884;12.534;2024-03-07T01:30:40;25.80;;;11.52;;
33413;SDS011;60055;41.884;12.534;2024-03-07T01:33:05;24.70;;;11.80;;
33413;SDS011;60055;41.884;12.534;2024-03-07T01:35:30;27.27;;;12.48;;
33413;SDS011;60055;41.884;12.534;2024-03-07T01:37:56;27.77;;;13.23;;
33413;SDS011;60055;41.884;12.534;2024-03-07T01:40:21;29.63;;;13.73;;
33413;SDS011;60055;41.884;12.534;2024-03-07T01:42:48;26.20;;;12.65;;
33413;SDS011;60055;41.884;12.534;2024-03-07T01:45:15;29.27;;;12.93;;
33413;SDS011;60055;41.884;12.534;2024-03-07T01:47:41;23.95;;;12.85;;
33413;SDS011;60055;41.884;12.534;2024-03-07T01:50:06;22.83;;;11.80;;
33413;SDS011;60055;41.884;12.534;2024-03-07T01:52:32;33.15;;;11.88;;
33413;SDS011;60055;41.884;12.534;2024-03-07T01:54:58;28.08;;;11.88;;
33413;SDS011;60055;41.884;12.534;2024-03-07T01:57:23;24.42;;;11.82;;
33413;SDS011;60055;41.884;12.534;2024-03-07T01:59:50;25.40;;;12.18;;
33413;SDS011;60055;41.884;12.534;2024-03-07T02:02:16;24.90;;;11.85;;
33413;SDS011;60055;41.884;12.534;2024-03-07T02:04:44;27.50;;;12.70;;
33413;SDS011;60055;41.884;12.534;2024-03-07T02:07:10;31.63;;;13.50;;
33413;SDS011;60055;41.884;12.534;2024-03-07T02:09:36;29.08;;;12.60;;
33413;SDS011;60055;41.884;12.534;2024-03-07T02:12:02;32.47;;;13.32;;
33413;SDS011;60055;41.884;12.534;2024-03-07T02:14:28;27.80;;;12.70;;
33413;SDS011;60055;41.884;12.534;2024-03-07T02:16:54;25.80;;;12.00;;
33413;SDS011;60055;41.884;12.534;2024-03-07T02:19:21;26.00;;;13.02;;
33413;SDS011;60055;41.884;12.534;2024-03-07T02:21:47;26.30;;;12.00;;
33413;SDS011;60055;41.884;12.534;2024-03-07T02:24:12;28.02;;;12.32;;
33413;SDS011;60055;41.884;12.534;2024-03-07T02:26:39;23.38;;;12.13;;
33413;SDS011;60055;41.884;12.534;2024-03-07T02:29:05;26.40;;;12.30;;
33413;SDS011;60055;41.884;12.534;2024-03-07T02:31:30;25.80;;;12.20;;
33413;SDS011;60055;41.884;12.534;2024-03-07T02:34:05;25.83;;;12.40;;
33413;SDS011;60055;41.884;12.534;2024-03-07T02:36:32;26.10;;;12.35;;
33413;SDS011;60055;41.884;12.534;2024-03-07T02:38:58;22.50;;;11.48;;
33413;SDS011;60055;41.884;12.534;2024-03-07T02:41:24;23.52;;;11.73;;
33413;SDS011;60055;41.884;12.534;2024-03-07T02:43:50;27.88;;;12.25;;
33413;SDS011;60055;41.884;12.534;2024-03-07T02:46:16;23.05;;;11.88;;
33413;SDS011;60055;41.884;12.534;2024-03-07T02:48:42;25.90;;;11.75;;
33413;SDS011;60055;41.884;12.534;2024-03-07T02:51:07;24.95;;;10.93;;
33413;SDS011;60055;41.884;12.534;2024-03-07T02:53:32;24.65;;;10.77;;
33413;SDS011;60055;41.884;12.534;2024-03-07T02:55:58;19.02;;;9.90;;
33413;SDS011;60055;41.884;12.534;2024-03-07T02:58:24;25.00;;;10.18;;
33413;SDS011;60055;41.884;12.534;2024-03-07T03:00:56;26.58;;;9.70;;
33413;SDS011;60055;41.884;12.534;2024-03-07T03:03:22;20.27;;;9.45;;
33413;SDS011;60055;41.884;12.534;2024-03-07T03:05:48;20.10;;;9.73;;
33413;SDS011;60055;41.884;12.534;2024-03-07T03:08:13;20.25;;;10.50;;
33413;SDS011;60055;41.884;12.534;2024-03-07T03:10:39;21.83;;;10.30;;
33413;SDS011;60055;41.884;12.534;2024-03-07T03:13:04;22.55;;;10.07;;
33413;SDS011;60055;41.884;12.534;2024-03-07T03:15:30;20.23;;;10.27;;
33413;SDS011;60055;41.884;12.534;2024-03-07T03:17:56;20.58;;;10.70;;
33413;SDS011;60055;41.884;12.534;2024-03-07T03:20:24;22.85;;;10.50;;
33413;SDS011;60055;41.884;12.534;2024-03-07T03:22:53;24.02;;;10.68;;
33413;SDS011;60055;41.884;12.534;2024-03-07T03:25:19;24.73;;;11.88;;
33413;SDS011;60055;41.884;12.534;2024-03-07T03:27:46;28.50;;;11.73;;
33413;SDS011;60055;41.884;12.534;2024-03-07T03:30:14;26.23;;;11.45;;
33413;SDS011;60055;41.884;12.534;2024-03-07T03:32:41;28.08;;;11.90;;
33413;SDS011;60055;41.884;12.534;2024-03-07T03:35:07;25.55;;;11.57;;
33413;SDS011;60055;41.884;12.534;2024-03-07T03:37:38;27.05;;;12.02;;
33413;SDS011;60055;41.884;12.534;2024-03-07T03:40:05;24.00;;;11.48;;
33413;SDS011;60055;41.884;12.534;2024-03-07T03:42:31;20.60;;;11.20;;
33413;SDS011;60055;41.884;12.534;2024-03-07T03:44:56;20.63;;;10.38;;
33413;SDS011;60055;41.884;12.534;2024-03-07T03:47:21;21.48;;;9.80;;
33413;SDS011;60055;41.884;12.534;2024-03-07T03:49:47;19.70;;;9.93;;
33413;SDS011;60055;41.884;12.534;2024-03-07T03:52:12;21.27;;;10.07;;
33413;SDS011;60055;41.884;12.534;2024-03-07T03:54:38;22.65;;;9.85;;
33413;SDS011;60055;41.884;12.534;2024-03-07T03:57:03;25.42;;;9.93;;
33413;SDS011;60055;41.884;12.534;2024-03-07T03:59:28;22.50;;;10.20;;
33413;SDS011;60055;41.884;12.534;2024-03-07T04:01:54;21.48;;;11.25;;
33413;SDS011;60055;41.884;12.534;2024-03-07T04:04:19;24.15;;;11.05;;
33413;SDS011;60055;41.884;12.534;2024-03-07T04:06:44;21.02;;;11.73;;
33413;SDS011;60055;41.884;12.534;2024-03-07T04:09:10;21.00;;;11.07;;
33413;SDS011;60055;41.884;12.534;2024-03-07T04:11:35;21.65;;;10.40;;
33413;SDS011;60055;41.884;12.534;2024-03-07T04:14:01;18.98;;;9.65;;
33413;SDS011;60055;41.884;12.534;2024-03-07T04:16:27;20.92;;;9.38;;
33413;SDS011;60055;41.884;12.534;2024-03-07T04:18:52;18.00;;;9.00;;
33413;SDS011;60055;41.884;12.534;2024-03-07T04:21:17;19.83;;;9.43;;
33413;SDS011;60055;41.884;12.534;2024-03-07T04:23:43;18.15;;;8.90;;
33413;SDS011;60055;41.884;12.534;2024-03-07T04:26:10;16.85;;;8.93;;
33413;SDS011;60055;41.884;12.534;2024-03-07T04:28:36;17.35;;;8.93;;
33413;SDS011;60055;41.884;12.534;2024-03-07T04:31:02;22.25;;;9.32;;
33413;SDS011;60055;41.884;12.534;2024-03-07T04:33:27;19.15;;;8.48;;
33413;SDS011;60055;41.884;12.534;2024-03-07T04:35:53;16.75;;;8.35;;
33413;SDS011;60055;41.884;12.534;2024-03-07T04:38:18;16.45;;;7.93;;
33413;SDS011;60055;41.884;12.534;2024-03-07T04:40:44;15.85;;;7.90;;
33413;SDS011;60055;41.884;12.534;2024-03-07T04:43:09;18.38;;;7.03;;
33413;SDS011;60055;41.884;12.534;2024-03-07T04:45:35;15.25;;;6.47;;
33413;SDS011;60055;41.884;12.534;2024-03-07T04:48:01;15.73;;;6.60;;
33413;SDS011;60055;41.884;12.534;2024-03-07T04:50:26;14.07;;;6.15;;
33413;SDS011;60055;41.884;12.534;2024-03-07T04:52:51;13.30;;;6.50;;
33413;SDS011;60055;41.884;12.534;2024-03-07T04:55:17;12.32;;;6.80;;
33413;SDS011;60055;41.884;12.534;2024-03-07T04:57:43;14.25;;;6.88;;
33413;SDS011;60055;41.884;12.534;2024-03-07T05:00:12;18.27;;;7.00;;
33413;SDS011;60055;41.884;12.534;2024-03-07T05:02:41;17.35;;;7.47;;
33413;SDS011;60055;41.884;12.534;2024-03-07T05:05:07;15.82;;;8.07;;
33413;SDS011;60055;41.884;12.534;2024-03-07T05:07:32;19.50;;;7.88;;
33413;SDS011;60055;41.884;12.534;2024-03-07T05:09:59;17.70;;;7.57;;
33413;SDS011;60055;41.884;12.534;2024-03-07T05:12:24;18.83;;;7.85;;
33413;SDS011;60055;41.884;12.534;2024-03-07T05:14:49;15.98;;;7.90;;
33413;SDS011;60055;41.884;12.534;2024-03-07T05:17:15;15.13;;;8.25;;
33413;SDS011;60055;41.884;12.534;2024-03-07T05:19:40;14.75;;;8.13;;
33413;SDS011;60055;41.884;12.534;2024-03-07T05:22:05;16.40;;;8.40;;
33413;SDS011;60055;41.884;12.534;2024-03-07T05:24:32;17.35;;;7.93;;
33413;SDS011;60055;41.884;12.534;2024-03-07T05:26:58;14.60;;;8.25;;
33413;SDS011;60055;41.884;12.534;2024-03-07T05:29:24;14.30;;;8.15;;
33413;SDS011;60055;41.884;12.534;2024-03-07T05:31:50;17.67;;;9.15;;
33413;SDS011;60055;41.884;12.534;2024-03-07T05:34:15;16.55;;;8.25;;
33413;SDS011;60055;41.884;12.534;2024-03-07T05:36:44;16.08;;;7.97;;
33413;SDS011;60055;41.884;12.534;2024-03-07T05:39:11;12.70;;;7.70;;
33413;SDS011;60055;41.884;12.534;2024-03-07T05:41:41;16.63;;;8.30;;
33413;SDS011;60055;41.884;12.534;2024-03-07T05:44:07;16.20;;;7.65;;
33413;SDS011;60055;41.884;12.534;2024-03-07T05:49:15;17.95;;;10.15;;
33413;SDS011;60055;41.884;12.534;2024-03-07T05:51:45;17.65;;;8.25;;
33413;SDS011;60055;41.884;12.534;2024-03-07T05:54:11;19.35;;;8.68;;
33413;SDS011;60055;41.884;12.534;2024-03-07T05:56:38;17.63;;;8.25;;
33413;SDS011;60055;41.884;12.534;2024-03-07T05:59:04;16.27;;;7.78;;
33413;SDS011;60055;41.884;12.534;2024-03-07T06:01:30;13.32;;;7.32;;
33413;SDS011;60055;41.884;12.534;2024-03-07T06:04:02;17.45;;;7.88;;
33413;SDS011;60055;41.884;12.534;2024-03-07T06:06:30;13.57;;;7.38;;
33413;SDS011;60055;41.884;12.534;2024-03-07T06:08:58;16.48;;;8.13;;
33413;SDS011;60055;41.884;12.534;2024-03-07T06:11:24;17.50;;;7.78;;
33413;SDS011;60055;41.884;12.534;2024-03-07T06:13:50;16.27;;;8.73;;
33413;SDS011;60055;41.884;12.534;2024-03-07T06:16:16;17.85;;;8.15;;
33413;SDS011;60055;41.884;12.534;2024-03-07T06:18:41;11.02;;;7.40;;
33413;SDS011;60055;41.884;12.534;2024-03-07T06:21:07;13.30;;;7.22;;
33413;SDS011;60055;41.884;12.534;2024-03-07T06:23:33;13.55;;;7.30;;
33413;SDS011;60055;41.884;12.534;2024-03-07T06:25:59;17.58;;;7.28;;
33413;SDS011;60055;41.884;12.534;2024-03-07T06:28:26;14.27;;;7.50;;
33413;SDS011;60055;41.884;12.534;2024-03-07T06:30:56;16.80;;;7.63;;
33413;SDS011;60055;41.884;12.534;2024-03-07T06:33:21;14.77;;;7.65;;
33413;SDS011;60055;41.884;12.534;2024-03-07T06:35:47;14.23;;;7.72;;
33413;SDS011;60055;41.884;12.534;2024-03-07T06:38:13;15.40;;;7.32;;
33413;SDS011;60055;41.884;12.534;2024-03-07T06:40:39;14.90;;;7.78;;
33413;SDS011;60055;41.884;12.534;2024-03-07T06:43:08;14.70;;;7.60;;
33413;SDS011;60055;41.884;12.534;2024-03-07T06:45:38;15.55;;;7.50;;
33413;SDS011;60055;41.884;12.534;2024-03-07T06:48:07;15.73;;;7.68;;
33413;SDS011;60055;41.884;12.534;2024-03-07T06:50:34;14.88;;;8.00;;
33413;SDS011;60055;41.884;12.534;2024-03-07T06:53:00;13.23;;;8.23;;
33413;SDS011;60055;41.884;12.534;2024-03-07T06:55:26;13.77;;;7.60;;
33413;SDS011;60055;41.884;12.534;2024-03-07T06:57:52;13.45;;;7.28;;
33413;SDS011;60055;41.884;12.534;2024-03-07T07:00:18;12.60;;;7.45;;
33413;SDS011;60055;41.884;12.534;2024-03-07T07:02:44;12.02;;;8.23;;
33413;SDS011;60055;41.884;12.534;2024-03-07T07:05:11;11.63;;;7.40;;
33413;SDS011;60055;41.884;12.534;2024-03-07T07:07:39;14.77;;;8.25;;
33413;SDS011;60055;41.884;12.534;2024-03-07T07:10:07;13.77;;;7.50;;
33413;SDS011;60055;41.884;12.534;2024-03-07T07:12:36;15.27;;;8.70;;
33413;SDS011;60055;41.884;12.534;2024-03-07T07:15:02;12.07;;;7.40;;
33413;SDS011;60055;41.884;12.534;2024-03-07T07:17:28;13.93;;;8.02;;
33413;SDS011;60055;41.884;12.534;2024-03-07T07:19:54;12.10;;;7.88;;
33413;SDS011;60055;41.884;12.534;2024-03-07T07:22:22;14.07;;;7.97;;
33413;SDS011;60055;41.884;12.534;2024-03-07T07:24:47;13.85;;;7.18;;
33413;SDS011;60055;41.884;12.534;2024-03-07T07:27:13;15.02;;;7.38;;
33413;SDS011;60055;41.884;12.534;2024-03-07T07:29:43;15.00;;;6.53;;
33413;SDS011;60055;41.884;12.534;2024-03-07T07:32:09;14.50;;;6.63;;
33413;SDS011;60055;41.884;12.534;2024-03-07T07:34:37;15.48;;;6.22;;
33413;SDS011;60055;41.884;12.534;2024-03-07T07:37:04;11.00;;;5.85;;
33413;SDS011;60055;41.884;12.534;2024-03-07T07:39:30;12.30;;;6.18;;
33413;SDS011;60055;41.884;12.534;2024-03-07T07:41:56;12.88;;;6.47;;
33413;SDS011;60055;41.884;12.534;2024-03-07T07:44:22;13.32;;;6.65;;
33413;SDS011;60055;41.884;12.534;2024-03-07T07:46:59;12.65;;;6.30;;
33413;SDS011;60055;41.884;12.534;2024-03-07T07:50:04;10.38;;;5.60;;
33413;SDS011;60055;41.884;12.534;2024-03-07T07:55:05;11.98;;;5.15;;
33413;SDS011;60055;41.884;12.534;2024-03-07T07:57:32;9.45;;;4.72;;
33413;SDS011;60055;41.884;12.534;2024-03-07T07:59:57;7.90;;;4.40;;
33413;SDS011;60055;41.884;12.534;2024-03-07T08:02:23;12.60;;;5.32;;
33413;SDS011;60055;41.884;12.534;2024-03-07T08:04:53;10.25;;;5.00;;
33413;SDS011;60055;41.884;12.534;2024-03-07T08:07:18;10.77;;;4.60;;
33413;SDS011;60055;41.884;12.534;2024-03-07T08:10:02;13.90;;;4.88;;
33413;SDS011;60055;41.884;12.534;2024-03-07T08:12:28;9.52;;;4.65;;
33413;SDS011;60055;41.884;12.534;2024-03-07T08:14:54;7.07;;;4.30;;
33413;SDS011;60055;41.884;12.534;2024-03-07T08:17:20;10.55;;;3.97;;
33413;SDS011;60055;41.884;12.534;2024-03-07T08:19:46;14.57;;;4.30;;
33413;SDS011;60055;41.884;12.534;2024-03-07T08:22:13;10.27;;;4.22;;
33413;SDS011;60055;41.884;12.534;2024-03-07T08:24:40;8.18;;;4.53;;
33413;SDS011;60055;41.884;12.534;2024-03-07T08:27:05;9.50;;;4.32;;
33413;SDS011;60055;41.884;12.534;2024-03-07T08:29:31;9.35;;;4.65;;
33413;SDS011;60055;41.884;12.534;2024-03-07T08:31:56;8.38;;;4.45;;
33413;SDS011;60055;41.884;12.534;2024-03-07T08:34:22;5.95;;;4.15;;
33413;SDS011;60055;41.884;12.534;2024-03-07T08:36:47;8.25;;;4.40;;
33413;SDS011;60055;41.884;12.534;2024-03-07T08:39:19;7.57;;;3.88;;
33413;SDS011;60055;41.884;12.534;2024-03-07T08:41:47;12.10;;;3.90;;
33413;SDS011;60055;41.884;12.534;2024-03-07T08:44:13;7.40;;;3.92;;
33413;SDS011;60055;41.884;12.534;2024-03-07T08:46:40;8.35;;;4.20;;
33413;SDS011;60055;41.884;12.534;2024-03-07T08:49:06;9.43;;;3.80;;
33413;SDS011;60055;41.884;12.534;2024-03-07T08:51:33;6.70;;;3.72;;
33413;SDS011;60055;41.884;12.534;2024-03-07T08:54:04;5.47;;;3.58;;
33413;SDS011;60055;41.884;12.534;2024-03-07T08:56:30;7.82;;;3.20;;
33413;SDS011;60055;41.884;12.534;2024-03-07T08:58:55;6.60;;;3.53;;
33413;SDS011;60055;41.884;12.534;2024-03-07T09:01:23;6.80;;;3.58;;
33413;SDS011;60055;41.884;12.534;2024-03-07T09:07:10;6.93;;;2.70;;
33413;SDS011;60055;41.884;12.534;2024-03-07T09:09:40;6.72;;;2.70;;
33413;SDS011;60055;41.884;12.534;2024-03-07T09:12:08;5.25;;;2.38;;
33413;SDS011;60055;41.884;12.534;2024-03-07T09:20:19;5.88;;;2.13;;
33413;SDS011;60055;41.884;12.534;2024-03-07T09:22:46;3.92;;;1.60;;
33413;SDS011;60055;41.884;12.534;2024-03-07T09:25:25;4.80;;;1.80;;
33413;SDS011;60055;41.884;12.534;2024-03-07T09:27:58;4.30;;;1.75;;
33413;SDS011;60055;41.884;12.534;2024-03-07T09:30:25;2.67;;;1.67;;
33413;SDS011;60055;41.884;12.534;2024-03-07T09:32:52;9.50;;;1.73;;
33413;SDS011;60055;41.884;12.534;2024-03-07T09:35:20;4.55;;;1.38;;
33413;SDS011;60055;41.884;12.534;2024-03-07T09:37:46;3.25;;;1.73;;
33413;SDS011;60055;41.884;12.534;2024-03-07T09:40:14;5.50;;;2.10;;
33413;SDS011;60055;41.884;12.534;2024-03-07T09:42:43;5.35;;;2.10;;
33413;SDS011;60055;41.884;12.534;2024-03-07T09:45:24;5.13;;;1.77;;
33413;SDS011;60055;41.884;12.534;2024-03-07T09:47:58;3.95;;;1.98;;
33413;SDS011;60055;41.884;12.534;2024-03-07T09:50:24;4.43;;;2.08;;
33413;SDS011;60055;41.884;12.534;2024-03-07T09:52:53;6.07;;;1.90;;
33413;SDS011;60055;41.884;12.534;2024-03-07T09:55:19;6.45;;;3.72;;
33413;SDS011;60055;41.884;12.534;2024-03-07T09:57:46;3.45;;;1.60;;
33413;SDS011;60055;41.884;12.534;2024-03-07T10:00:13;3.63;;;1.33;;
33413;SDS011;60055;41.884;12.534;2024-03-07T10:02:48;3.40;;;1.50;;
33413;SDS011;60055;41.884;12.534;2024-03-07T10:05:18;3.95;;;2.58;;
33413;SDS011;60055;41.884;12.534;2024-03-07T10:07:45;6.85;;;2.40;;
33413;SDS011;60055;41.884;12.534;2024-03-07T10:10:11;3.72;;;2.22;;
33413;SDS011;60055;41.884;12.534;2024-03-07T10:12:58;6.65;;;2.78;;
33413;SDS011;60055;41.884;12.534;2024-03-07T10:15:29;8.40;;;2.95;;
33413;SDS011;60055;41.884;12.534;2024-03-07T10:17:59;9.57;;;2.75;;
33413;SDS011;60055;41.884;12.534;2024-03-07T10:20:27;9.23;;;2.60;;
33413;SDS011;60055;41.884;12.534;2024-03-07T10:22:56;11.95;;;2.80;;
33413;SDS011;60055;41.884;12.534;2024-03-07T10:25:32;6.13;;;2.67;;
33413;SDS011;60055;41.884;12.534;2024-03-07T10:27:59;8.88;;;2.50;;
33413;SDS011;60055;41.884;12.534;2024-03-07T10:30:25;5.38;;;2.30;;
33413;SDS011;60055;41.884;12.534;2024-03-07T10:32:56;5.07;;;2.60;;
33413;SDS011;60055;41.884;12.534;2024-03-07T10:35:22;4.38;;;2.10;;
33413;SDS011;60055;41.884;12.534;2024-03-07T10:37:54;8.85;;;2.25;;
33413;SDS011;60055;41.884;12.534;2024-03-07T10:40:23;9.00;;;2.50;;
33413;SDS011;60055;41.884;12.534;2024-03-07T10:42:59;4.38;;;2.25;;
33413;SDS011;60055;41.884;12.534;2024-03-07T10:45:28;9.00;;;2.17;;
33413;SDS011;60055;41.884;12.534;2024-03-07T10:47:58;6.93;;;2.22;;
33413;SDS011;60055;41.884;12.534;2024-03-07T10:59:24;5.97;;;2.20;;
33413;SDS011;60055;41.884;12.534;2024-03-07T11:04:58;4.28;;;1.65;;
33413;SDS011;60055;41.884;12.534;2024-03-07T11:07:27;3.28;;;2.03;;
33413;SDS011;60055;41.884;12.534;2024-03-07T11:09:54;7.82;;;2.08;;
33413;SDS011;60055;41.884;12.534;2024-03-07T11:12:26;19.00;;;5.75;;
33413;SDS011;60055;41.884;12.534;2024-03-07T11:14:54;6.32;;;2.63;;
33413;SDS011;60055;41.884;12.534;2024-03-07T11:17:21;6.40;;;2.50;;
33413;SDS011;60055;41.884;12.534;2024-03-07T11:19:48;6.18;;;1.92;;
33413;SDS011;60055;41.884;12.534;2024-03-07T11:22:30;5.32;;;1.73;;
33413;SDS011;60055;41.884;12.534;2024-03-07T11:25:02;4.97;;;1.65;;
33413;SDS011;60055;41.884;12.534;2024-03-07T11:27:32;7.07;;;1.95;;
33413;SDS011;60055;41.884;12.534;2024-03-07T11:30:05;6.40;;;2.00;;
33413;SDS011;60055;41.884;12.534;2024-03-07T11:32:40;6.25;;;1.73;;
33413;SDS011;60055;41.884;12.534;2024-03-07T11:35:13;7.85;;;1.92;;
33413;SDS011;60055;41.884;12.534;2024-03-07T11:37:58;4.85;;;1.58;;
33413;SDS011;60055;41.884;12.534;2024-03-07T11:40:50;6.45;;;1.58;;
33413;SDS011;60055;41.884;12.534;2024-03-07T11:43:16;14.60;;;2.05;;
33413;SDS011;60055;41.884;12.534;2024-03-07T11:45:41;6.18;;;1.70;;
33413;SDS011;60055;41.884;12.534;2024-03-07T11:48:38;7.43;;;1.83;;
33413;SDS011;60055;41.884;12.534;2024-03-07T11:51:31;5.93;;;1.42;;
33413;SDS011;60055;41.884;12.534;2024-03-07T11:54:00;6.55;;;1.60;;
33413;SDS011;60055;41.884;12.534;2024-03-07T11:56:28;9.85;;;2.20;;
33413;SDS011;60055;41.884;12.534;2024-03-07T11:58:59;5.30;;;1.60;;
33413;SDS011;60055;41.884;12.534;2024-03-07T12:01:32;4.95;;;1.77;;
33413;SDS011;60055;41.884;12.534;2024-03-07T12:04:01;9.20;;;1.52;;
33413;SDS011;60055;41.884;12.534;2024-03-07T12:06:38;9.70;;;1.88;;
33413;SDS011;60055;41.884;12.534;2024-03-07T12:09:17;5.55;;;1.45;;
33413;SDS011;60055;41.884;12.534;2024-03-07T12:11:49;5.20;;;1.77;;
33413;SDS011;60055;41.884;12.534;2024-03-07T12:14:18;9.45;;;2.03;;
33413;SDS011;60055;41.884;12.534;2024-03-07T12:17:06;5.43;;;1.80;;
33413;SDS011;60055;41.884;12.534;2024-03-07T12:20:12;7.32;;;1.77;;
33413;SDS011;60055;41.884;12.534;2024-03-07T13:14:32;7.78;;;2.20;;
33413;SDS011;60055;41.884;12.534;2024-03-07T13:24:35;5.15;;;1.85;;
33413;SDS011;60055;41.884;12.534;2024-03-07T13:31:12;6.45;;;1.77;;
33413;SDS011;60055;41.884;12.534;2024-03-07T14:31:35;2.92;;;1.60;;
33413;SDS011;60055;41.884;12.534;2024-03-07T15:58:40;5.85;;;1.80;;
33413;SDS011;60055;41.884;12.534;2024-03-07T16:14:36;6.65;;;1.48;;
33413;SDS011;60055;41.884;12.534;2024-03-07T16:40:22;7.13;;;1.80;;
33413;SDS011;60055;41.884;12.534;2024-03-07T16:42:49;9.80;;;3.20;;
33413;SDS011;60055;41.884;12.534;2024-03-07T16:45:16;10.02;;;2.03;;
33413;SDS011;60055;41.884;12.534;2024-03-07T16:47:44;6.90;;;1.77;;
33413;SDS011;60055;41.884;12.534;2024-03-07T16:50:11;8.70;;;2.33;;
33413;SDS011;60055;41.884;12.534;2024-03-07T16:52:40;6.80;;;1.90;;
33413;SDS011;60055;41.884;12.534;2024-03-07T16:55:06;9.65;;;2.08;;
33413;SDS011;60055;41.884;12.534;2024-03-07T16:57:39;6.68;;;1.83;;
33413;SDS011;60055;41.884;12.534;2024-03-07T17:00:06;9.45;;;2.92;;
33413;SDS011;60055;41.884;12.534;2024-03-07T17:02:33;7.97;;;1.90;;
33413;SDS011;60055;41.884;12.534;2024-03-07T17:04:59;10.15;;;1.98;;
33413;SDS011;60055;41.884;12.534;2024-03-07T17:07:25;7.10;;;2.22;;
33413;SDS011;60055;41.884;12.534;2024-03-07T17:09:50;6.40;;;1.63;;
33413;SDS011;60055;41.884;12.534;2024-03-07T17:12:17;7.72;;;1.70;;
33413;SDS011;60055;41.884;12.534;2024-03-07T17:14:42;8.90;;;2.20;;
33413;SDS011;60055;41.884;12.534;2024-03-07T17:17:09;8.50;;;2.53;;
33413;SDS011;60055;41.884;12.534;2024-03-07T17:19:38;7.70;;;1.85;;
33413;SDS011;60055;41.884;12.534;2024-03-07T17:22:04;7.32;;;1.85;;
33413;SDS011;60055;41.884;12.534;2024-03-07T17:24:31;7.28;;;2.00;;
33413;SDS011;60055;41.884;12.534;2024-03-07T17:26:57;8.32;;;2.05;;
33413;SDS011;60055;41.884;12.534;2024-03-07T17:29:23;6.57;;;1.88;;
33413;SDS011;60055;41.884;12.534;2024-03-07T17:31:48;9.48;;;2.42;;
33413;SDS011;60055;41.884;12.534;2024-03-07T17:34:14;7.20;;;2.00;;
33413;SDS011;60055;41.884;12.534;2024-03-07T17:36:49;9.02;;;3.85;;
33413;SDS011;60055;41.884;12.534;2024-03-07T17:39:14;9.65;;;3.80;;
33413;SDS011;60055;41.884;12.534;2024-03-07T17:41:40;13.23;;;4.88;;
33413;SDS011;60055;41.884;12.534;2024-03-07T17:44:06;15.52;;;5.45;;
33413;SDS011;60055;41.884;12.534;2024-03-07T17:46:36;7.68;;;3.35;;
33413;SDS011;60055;41.884;12.534;2024-03-07T17:49:03;12.20;;;4.20;;
33413;SDS011;60055;41.884;12.534;2024-03-07T17:51:29;13.00;;;2.80;;
33413;SDS011;60055;41.884;12.534;2024-03-07T17:53:54;11.18;;;2.83;;
33413;SDS011;60055;41.884;12.534;2024-03-07T17:56:21;13.27;;;3.20;;
33413;SDS011;60055;41.884;12.534;2024-03-07T17:58:49;8.05;;;2.30;;
33413;SDS011;60055;41.884;12.534;2024-03-07T18:01:15;10.65;;;2.97;;
33413;SDS011;60055;41.884;12.534;2024-03-07T18:03:41;6.75;;;2.03;;
33413;SDS011;60055;41.884;12.534;2024-03-07T18:06:08;12.88;;;3.45;;
33413;SDS011;60055;41.884;12.534;2024-03-07T18:08:34;8.98;;;3.10;;
33413;SDS011;60055;41.884;12.534;2024-03-07T18:11:01;17.30;;;4.45;;
33413;SDS011;60055;41.884;12.534;2024-03-07T18:13:30;20.60;;;7.90;;
33413;SDS011;60055;41.884;12.534;2024-03-07T18:15:58;64.03;;;25.27;;
33413;SDS011;60055;41.884;12.534;2024-03-07T18:18:23;112.40;;;41.50;;
33413;SDS011;60055;41.884;12.534;2024-03-07T18:20:50;48.50;;;17.85;;
33413;SDS011;60055;41.884;12.534;2024-03-07T18:23:15;16.38;;;5.78;;
33413;SDS011;60055;41.884;12.534;2024-03-07T18:25:41;15.73;;;5.60;;
33413;SDS011;60055;41.884;12.534;2024-03-07T18:28:07;31.63;;;11.32;;
33413;SDS011;60055;41.884;12.534;2024-03-07T18:30:34;46.67;;;16.30;;
33413;SDS011;60055;41.884;12.534;2024-03-07T18:33:00;32.45;;;12.23;;
33413;SDS011;60055;41.884;12.534;2024-03-07T18:35:32;16.63;;;6.22;;
33413;SDS011;60055;41.884;12.534;2024-03-07T18:38:04;74.25;;;26.80;;
33413;SDS011;60055;41.884;12.534;2024-03-07T18:40:32;41.85;;;14.65;;
33413;SDS011;60055;41.884;12.534;2024-03-07T18:42:58;24.33;;;6.88;;
33413;SDS011;60055;41.884;12.534;2024-03-07T18:45:31;46.92;;;16.75;;
33413;SDS011;60055;41.884;12.534;2024-03-07T18:47:57;33.17;;;11.52;;
33413;SDS011;60055;41.884;12.534;2024-03-07T18:50:23;13.00;;;5.38;;
33413;SDS011;60055;41.884;12.534;2024-03-07T18:52:51;17.48;;;7.47;;
33413;SDS011;60055;41.884;12.534;2024-03-07T18:55:18;21.85;;;9.10;;